Time;durP1;ratioP1;P1;durP2;ratioP2;P2;SDS_P1;SDS_P2;PMS_P1;PMS_P2;Temp;Humidity;BMP_temperature;BMP_pressure;BME280_temperature;BME280_humidity;BME280_pressure;Samples;Min_cycle;Max_cycle;Signal;HPM_P1;HPM_P2
2021/06/18 00:00:27;;;;;;;6.55;4.65;;;23.50;70.30;;;;;;5095918;28;20176;-87
2021/06/18 00:02:54;;;;;;;7.43;4.78;;;23.50;70.10;;;;;;5095743;28;20698;-87
2021/06/18 00:05:20;;;;;;;6.93;4.80;;;23.50;70.20;;;;;;5095893;28;20204;-87
2021/06/18 00:07:47;;;;;;;9.73;5.00;;;23.40;70.20;;;;;;5096018;28;20199;-87
2021/06/18 00:10:15;;;;;;;6.60;5.00;;;23.40;69.90;;;;;;5095942;28;20163;-87
2021/06/18 00:12:41;;;;;;;9.48;5.22;;;23.40;69.90;;;;;;5095290;28;20191;-87
2021/06/18 00:15:08;;;;;;;8.10;4.90;;;23.30;69.50;;;;;;5095397;28;20182;-87
2021/06/18 00:17:34;;;;;;;9.48;5.03;;;23.30;69.80;;;;;;5095397;28;20406;-87
2021/06/18 00:20:00;;;;;;;7.15;4.72;;;23.20;70.20;;;;;;5095119;28;20176;-86
2021/06/18 00:22:26;;;;;;;8.43;5.50;;;23.20;70.60;;;;;;5095437;28;20672;-87
2021/06/18 00:24:53;;;;;;;7.97;4.13;;;23.20;71.30;;;;;;5094938;28;20461;-86
2021/06/18 00:27:19;;;;;;;7.20;4.65;;;23.10;70.80;;;;;;5095371;28;20945;-87
2021/06/18 00:29:45;;;;;;;7.40;4.83;;;23.10;70.50;;;;;;5095518;28;20175;-87
2021/06/18 00:32:11;;;;;;;8.02;5.40;;;23.00;70.30;;;;;;5095108;28;20539;-87
2021/06/18 00:34:37;;;;;;;8.67;4.83;;;23.00;70.10;;;;;;5095308;28;20207;-87
2021/06/18 00:37:03;;;;;;;6.83;4.60;;;22.90;70.80;;;;;;5095560;28;20262;-87
2021/06/18 00:39:29;;;;;;;10.30;4.80;;;22.90;70.90;;;;;;5095171;28;20186;-87
2021/06/18 00:41:55;;;;;;;7.30;4.33;;;22.80;71.00;;;;;;5095007;28;20434;-87
2021/06/18 00:44:20;;;;;;;15.50;4.95;;;22.70;71.00;;;;;;5096355;28;20225;-87
2021/06/18 00:46:46;;;;;;;7.90;5.13;;;22.70;71.40;;;;;;5095263;28;20183;-87
2021/06/18 00:49:14;;;;;;;9.00;5.33;;;22.70;71.40;;;;;;5094997;28;20746;-87
2021/06/18 00:51:40;;;;;;;12.75;7.28;;;22.70;71.90;;;;;;5094852;28;20421;-87
2021/06/18 00:54:07;;;;;;;10.77;6.20;;;22.60;72.60;;;;;;5095058;28;20176;-87
2021/06/18 00:56:33;;;;;;;8.65;5.32;;;22.50;72.80;;;;;;5094611;28;20172;-87
2021/06/18 00:59:00;;;;;;;9.57;5.70;;;22.50;72.80;;;;;;5094748;28;20245;-87
2021/06/18 01:01:26;;;;;;;9.82;5.13;;;22.50;72.70;;;;;;5094910;28;20687;-87
2021/06/18 01:03:52;;;;;;;7.87;5.13;;;22.50;72.40;;;;;;5094461;28;20203;-87
2021/06/18 01:06:45;;;;;;;7.18;4.82;;;22.40;72.30;;;;;;5094535;28;20406;-87
2021/06/18 01:09:14;;;;;;;6.22;4.93;;;22.40;72.30;;;;;;5091460;28;20187;-87
2021/06/18 01:12:02;;;;;;;7.63;3.92;;;22.40;72.00;;;;;;5094282;28;20172;-87
2021/06/18 01:14:49;;;;;;;9.27;5.35;;;22.30;71.90;;;;;;5094897;28;20159;-87
2021/06/18 01:17:24;;;;;;;7.80;4.10;;;22.30;72.60;;;;;;5094694;28;20167;-87
2021/06/18 01:20:03;;;;;;;6.65;4.80;;;22.20;72.70;;;;;;5094983;28;20160;-87
2021/06/18 01:22:32;;;;;;;7.07;5.10;;;22.10;72.70;;;;;;5094304;28;20196;-87
2021/06/18 01:25:24;;;;;;;6.80;4.53;;;22.00;73.00;;;;;;5094527;28;20199;-87
2021/06/18 01:28:24;;;;;;;12.82;4.55;;;22.00;72.80;;;;;;5094226;28;20266;-86
2021/06/18 01:30:50;;;;;;;9.32;6.47;;;21.90;73.40;;;;;;5065028;28;20176;-82
2021/06/18 01:33:19;;;;;;;7.07;4.75;;;21.90;74.10;;;;;;5095882;28;20852;-82
2021/06/18 01:35:49;;;;;;;11.18;5.13;;;21.80;75.30;;;;;;5095726;28;20631;-82
2021/06/18 01:38:17;;;;;;;13.32;6.78;;;21.70;76.20;;;;;;5095854;28;20172;-82
2021/06/18 01:40:47;;;;;;;11.10;6.45;;;21.60;77.70;;;;;;5095144;28;20710;-81
2021/06/18 01:43:15;;;;;;;9.52;5.95;;;21.60;78.30;;;;;;5095257;28;20195;-82
2021/06/18 01:45:44;;;;;;;10.82;6.82;;;21.50;79.40;;;;;;5095015;28;20174;-82
2021/06/18 01:48:11;;;;;;;12.02;7.10;;;21.50;79.60;;;;;;5094796;28;20172;-82
2021/06/18 01:50:40;;;;;;;9.27;5.97;;;21.50;79.90;;;;;;5078639;28;20191;-82
2021/06/18 01:53:10;;;;;;;12.50;6.30;;;21.40;79.60;;;;;;5095105;28;20278;-82
2021/06/18 01:55:38;;;;;;;9.07;5.93;;;21.40;80.10;;;;;;5095235;28;20197;-86
2021/06/18 01:58:05;;;;;;;11.25;6.80;;;21.40;80.60;;;;;;5097008;28;20194;-85
2021/06/18 02:00:34;;;;;;;10.43;5.63;;;21.40;80.90;;;;;;5098237;28;20365;-85
2021/06/18 02:03:02;;;;;;;8.15;5.40;;;21.30;81.40;;;;;;5098063;28;20195;-85
2021/06/18 02:05:31;;;;;;;11.93;6.45;;;21.40;81.90;;;;;;5097877;28;20235;-85
2021/06/18 02:07:58;;;;;;;16.75;6.47;;;21.40;82.00;;;;;;5097700;28;20305;-85
2021/06/18 02:10:26;;;;;;;13.25;6.70;;;21.40;81.90;;;;;;5095091;28;20172;-82
2021/06/18 02:12:54;;;;;;;7.22;5.68;;;21.40;81.90;;;;;;5094479;28;20215;-82
2021/06/18 02:15:21;;;;;;;14.07;6.75;;;21.40;82.10;;;;;;5094089;28;20255;-82
2021/06/18 02:17:49;;;;;;;10.80;7.05;;;21.40;81.70;;;;;;5094001;28;20740;-82
2021/06/18 02:20:16;;;;;;;11.43;7.07;;;21.40;82.10;;;;;;5094119;28;20180;-82
2021/06/18 02:22:45;;;;;;;12.77;7.25;;;21.40;82.10;;;;;;5093834;28;20192;-82
2021/06/18 02:25:14;;;;;;;18.10;7.72;;;21.40;82.10;;;;;;5094149;28;20203;-82
2021/06/18 02:27:42;;;;;;;12.48;7.10;;;21.40;82.40;;;;;;5094340;28;20195;-82
2021/06/18 02:30:08;;;;;;;11.48;6.60;;;21.40;81.90;;;;;;5094263;28;20648;-82
2021/06/18 02:32:36;;;;;;;21.25;7.47;;;21.40;82.10;;;;;;5093682;28;20235;-82
2021/06/18 02:35:03;;;;;;;8.10;6.30;;;21.40;81.70;;;;;;5093883;28;20211;-82
2021/06/18 02:37:29;;;;;;;11.30;7.13;;;21.40;81.90;;;;;;5094332;28;20168;-85
2021/06/18 02:39:55;;;;;;;11.53;7.30;;;21.30;82.10;;;;;;5095017;28;20178;-85
2021/06/18 02:42:21;;;;;;;9.77;6.50;;;21.30;82.40;;;;;;5094838;28;20249;-85
2021/06/18 02:44:47;;;;;;;13.10;7.43;;;21.20;82.10;;;;;;5095209;28;20454;-85
2021/06/18 02:47:34;;;;;;;13.57;6.83;;;21.20;83.00;;;;;;5095935;28;20195;-84
2021/06/18 02:50:07;;;;;;;11.73;7.82;;;21.10;84.40;;;;;;5095024;28;20497;-85
2021/06/18 02:52:56;;;;;;;12.43;8.50;;;21.10;84.40;;;;;;5094982;28;20240;-85
2021/06/18 02:55:29;;;;;;;17.52;8.77;;;21.10;85.10;;;;;;5096081;28;20155;-85
2021/06/18 02:58:00;;;;;;;12.25;7.43;;;21.10;85.30;;;;;;5095374;28;20222;-85
2021/06/18 03:00:28;;;;;;;12.73;8.38;;;21.10;85.20;;;;;;5094790;28;20175;-85
2021/06/18 03:02:59;;;;;;;12.02;8.25;;;21.10;85.20;;;;;;5094569;28;20680;-85
2021/06/18 03:05:26;;;;;;;13.15;7.45;;;21.10;84.90;;;;;;5094805;28;20219;-85
2021/06/18 03:08:12;;;;;;;17.98;8.55;;;21.10;84.50;;;;;;5094396;28;20167;-85
2021/06/18 03:10:43;;;;;;;11.23;8.00;;;21.10;84.40;;;;;;5094360;28;20160;-85
2021/06/18 03:13:30;;;;;;;9.95;7.43;;;21.00;83.80;;;;;;5094983;28;20215;-85
2021/06/18 03:15:56;;;;;;;11.20;7.95;;;21.00;83.70;;;;;;5094605;28;20171;-85
2021/06/18 03:18:23;;;;;;;12.38;7.53;;;21.00;83.90;;;;;;5096008;28;20203;-85
2021/06/18 03:20:52;;;;;;;11.95;6.55;;;21.10;82.30;;;;;;5099269;28;20172;-84
2021/06/18 03:23:21;;;;;;;16.25;8.23;;;21.10;81.30;;;;;;5099954;28;20576;-85
2021/06/18 03:25:48;;;;;;;14.13;7.75;;;21.20;81.20;;;;;;5099500;28;20164;-85
2021/06/18 03:28:15;;;;;;;17.73;7.50;;;21.20;81.30;;;;;;5099082;28;20297;-84
2021/06/18 03:30:44;;;;;;;10.57;6.50;;;21.40;81.30;;;;;;5099329;28;20319;-84
2021/06/18 03:33:10;;;;;;;11.60;7.20;;;21.40;80.90;;;;;;5099405;28;20191;-85
2021/06/18 03:35:38;;;;;;;11.15;6.60;;;21.40;80.90;;;;;;5100299;28;20171;-85
2021/06/18 03:38:04;;;;;;;10.20;6.68;;;21.50;80.80;;;;;;5100901;28;20175;-85
2021/06/18 03:40:32;;;;;;;15.05;7.80;;;21.50;81.40;;;;;;5099683;28;20678;-85
2021/06/18 03:42:58;;;;;;;14.43;6.63;;;21.60;80.80;;;;;;5099643;28;20568;-85
2021/06/18 03:45:24;;;;;;;11.30;8.20;;;21.60;80.60;;;;;;5099548;28;20672;-85
2021/06/18 03:47:51;;;;;;;9.93;6.30;;;21.60;80.90;;;;;;5100821;28;20168;-84
2021/06/18 03:50:20;;;;;;;15.93;7.43;;;21.60;81.00;;;;;;5099955;28;20175;-84
2021/06/18 03:52:46;;;;;;;17.90;8.98;;;21.60;81.00;;;;;;5098134;28;20203;-84
2021/06/18 03:55:12;;;;;;;14.73;7.33;;;21.50;81.30;;;;;;5099636;28;20183;-85
2021/06/18 03:57:41;;;;;;;20.58;8.40;;;21.50;81.40;;;;;;5098930;28;20241;-85
2021/06/18 04:00:09;;;;;;;17.55;9.15;;;21.40;82.10;;;;;;5098589;28;20632;-84
2021/06/18 04:02:37;;;;;;;14.45;9.07;;;21.40;82.10;;;;;;5098901;28;20675;-85
2021/06/18 04:05:04;;;;;;;11.90;7.85;;;21.40;82.40;;;;;;5097765;28;20203;-85
2021/06/18 04:07:31;;;;;;;14.57;8.23;;;21.40;82.40;;;;;;5098222;28;20175;-85
2021/06/18 04:09:58;;;;;;;19.52;8.07;;;21.40;82.30;;;;;;5098067;28;20532;-85
2021/06/18 04:12:24;;;;;;;14.35;8.48;;;21.40;82.70;;;;;;5097587;28;20215;-85
2021/06/18 04:14:52;;;;;;;14.43;9.15;;;21.40;82.70;;;;;;5098437;28;20187;-85
2021/06/18 04:17:18;;;;;;;15.50;8.02;;;21.50;82.80;;;;;;5098336;28;20232;-85
2021/06/18 04:19:45;;;;;;;13.05;7.63;;;21.50;82.80;;;;;;5098422;28;20216;-85
2021/06/18 04:22:19;;;;;;;10.70;7.90;;;21.60;82.60;;;;;;5098140;28;20675;-85
2021/06/18 04:24:45;;;;;;;11.77;8.98;;;21.50;82.70;;;;;;5097859;28;20226;-84
2021/06/18 04:27:10;;;;;;;17.23;9.63;;;21.50;82.70;;;;;;5097311;28;20213;-84
2021/06/18 04:29:36;;;;;;;13.30;8.50;;;21.50;83.10;;;;;;5097246;28;20168;-84
2021/06/18 04:32:02;;;;;;;18.37;8.37;;;21.50;83.70;;;;;;5095918;28;20196;-84
2021/06/18 04:34:28;;;;;;;12.87;8.30;;;21.60;83.80;;;;;;5097716;28;20606;-85
2021/06/18 04:36:53;;;;;;;14.00;7.93;;;21.50;84.10;;;;;;5097599;28;20401;-84
2021/06/18 04:39:19;;;;;;;18.40;8.00;;;21.50;84.10;;;;;;5098655;28;20217;-84
2021/06/18 04:41:45;;;;;;;15.93;8.83;;;21.60;83.50;;;;;;5097586;28;20249;-85
2021/06/18 04:44:11;;;;;;;18.93;7.83;;;21.70;83.10;;;;;;5097203;28;20244;-85
2021/06/18 04:46:37;;;;;;;24.40;8.90;;;21.80;83.00;;;;;;5097488;28;20418;-83
2021/06/18 04:49:02;;;;;;;15.00;7.80;;;21.80;82.60;;;;;;5097085;28;20417;-83
2021/06/18 04:51:28;;;;;;;16.33;7.73;;;21.80;82.40;;;;;;5097165;28;20172;-83
2021/06/18 04:53:55;;;;;;;12.93;7.73;;;21.90;81.60;;;;;;5097119;28;20171;-84
2021/06/18 04:56:21;;;;;;;13.98;9.07;;;22.00;81.00;;;;;;5097162;28;20928;-84
2021/06/18 04:58:47;;;;;;;16.08;7.78;;;22.00;81.00;;;;;;5097555;28;20599;-84
2021/06/18 05:01:12;;;;;;;12.87;6.40;;;22.00;80.90;;;;;;5096744;28;20167;-86
2021/06/18 05:03:38;;;;;;;10.27;7.00;;;22.10;80.80;;;;;;5095850;28;20873;-85
2021/06/18 05:06:04;;;;;;;10.63;7.60;;;22.20;80.20;;;;;;5095547;28;20168;-85
2021/06/18 05:08:30;;;;;;;16.37;7.40;;;22.30;80.10;;;;;;5095464;28;20655;-85
2021/06/18 05:10:56;;;;;;;17.10;7.80;;;22.40;79.40;;;;;;5095982;28;20402;-86
2021/06/18 05:13:22;;;;;;;14.35;7.07;;;22.50;79.20;;;;;;5096680;28;20198;-84
2021/06/18 05:15:48;;;;;;;15.03;7.60;;;22.60;79.10;;;;;;5096581;28;20175;-85
2021/06/18 05:18:14;;;;;;;12.73;7.70;;;22.70;80.10;;;;;;5096188;28;20406;-83
2021/06/18 05:20:41;;;;;;;18.63;9.73;;;22.80;80.10;;;;;;5096188;28;20175;-84
2021/06/18 05:23:06;;;;;;;18.33;9.60;;;22.80;80.90;;;;;;5095712;28;20223;-86
2021/06/18 05:25:32;;;;;;;20.73;12.47;;;22.90;81.20;;;;;;5095784;28;20268;-83
2021/06/18 05:27:58;;;;;;;22.53;13.37;;;22.90;81.20;;;;;;5096962;28;20417;-81
2021/06/18 05:30:24;;;;;;;20.03;11.40;;;22.90;80.90;;;;;;5096333;28;20168;-82
2021/06/18 05:32:50;;;;;;;23.10;12.17;;;23.00;80.90;;;;;;5095296;28;20180;-82
2021/06/18 05:35:16;;;;;;;18.83;10.97;;;23.10;80.90;;;;;;5096081;28;20500;-83
2021/06/18 05:37:42;;;;;;;34.90;10.63;;;23.10;80.80;;;;;;5095979;28;20188;-83
2021/06/18 05:40:09;;;;;;;12.97;8.97;;;23.20;80.90;;;;;;5095702;28;20599;-82
2021/06/18 05:42:38;;;;;;;12.77;8.40;;;23.20;79.80;;;;;;5095426;28;20433;-82
2021/06/18 05:45:05;;;;;;;21.63;9.40;;;23.30;79.60;;;;;;5096163;28;20198;-84
2021/06/18 05:47:31;;;;;;;16.38;10.10;;;23.50;78.80;;;;;;5095731;28;20171;-80
2021/06/18 05:49:56;;;;;;;20.47;9.23;;;23.60;78.70;;;;;;5096312;28;20164;-81
2021/06/18 05:52:23;;;;;;;19.10;8.87;;;23.60;79.10;;;;;;5094964;28;20648;-82
2021/06/18 05:54:49;;;;;;;18.02;9.88;;;23.70;78.80;;;;;;5096497;28;20581;-82
2021/06/18 05:57:15;;;;;;;18.13;9.97;;;23.80;78.90;;;;;;5096092;28;20184;-83
2021/06/18 05:59:40;;;;;;;15.60;10.20;;;23.80;79.20;;;;;;5096911;28;20426;-84
2021/06/18 06:02:06;;;;;;;21.70;10.87;;;24.00;78.70;;;;;;5095403;28;20956;-83
2021/06/18 06:04:32;;;;;;;19.07;11.00;;;24.00;78.00;;;;;;5095218;28;20320;-82
2021/06/18 06:06:58;;;;;;;18.13;10.27;;;24.10;77.70;;;;;;5095651;28;20164;-80
2021/06/18 06:09:24;;;;;;;17.83;9.50;;;24.20;77.30;;;;;;5095992;28;20652;-80
2021/06/18 06:11:49;;;;;;;17.47;9.53;;;24.20;76.60;;;;;;5096411;28;20437;-79
2021/06/18 06:14:18;;;;;;;13.63;9.77;;;24.20;76.30;;;;;;5096898;28;20258;-82
2021/06/18 06:16:45;;;;;;;14.98;10.00;;;24.20;76.30;;;;;;5095675;28;20780;-82
2021/06/18 06:19:12;;;;;;;16.67;9.20;;;24.40;77.00;;;;;;5095594;28;20556;-81
2021/06/18 06:21:40;;;;;;;13.43;8.30;;;24.40;76.70;;;;;;5094224;28;20210;-85
2021/06/18 06:24:07;;;;;;;17.73;8.43;;;24.50;76.90;;;;;;5093874;28;20663;-84
2021/06/18 06:26:33;;;;;;;16.42;9.32;;;24.60;75.90;;;;;;5095635;28;20172;-84
2021/06/18 06:28:59;;;;;;;18.23;9.83;;;24.60;75.30;;;;;;5095285;28;20263;-84
2021/06/18 06:31:24;;;;;;;14.93;9.37;;;24.80;75.20;;;;;;5094317;28;20537;-83
2021/06/18 06:33:50;;;;;;;14.73;9.60;;;24.90;74.90;;;;;;5094612;28;20434;-84
2021/06/18 06:36:16;;;;;;;15.53;9.70;;;25.10;74.50;;;;;;5095269;28;20542;-82
2021/06/18 06:38:42;;;;;;;14.30;9.90;;;25.20;73.50;;;;;;5094293;28;20537;-85
2021/06/18 06:41:08;;;;;;;16.93;8.90;;;25.10;73.50;;;;;;5094832;28;20410;-84
2021/06/18 06:43:34;;;;;;;13.33;8.73;;;25.30;74.50;;;;;;5093779;28;20727;-82
2021/06/18 06:45:59;;;;;;;21.13;8.85;;;25.40;73.50;;;;;;5095118;28;20198;-82
2021/06/18 06:48:26;;;;;;;16.30;9.43;;;25.60;72.10;;;;;;5094788;28;20175;-82
2021/06/18 06:50:51;;;;;;;17.20;9.35;;;25.80;71.00;;;;;;5094833;28;20406;-81
2021/06/18 06:53:18;;;;;;;24.43;10.00;;;25.90;71.30;;;;;;5094676;28;20194;-81
2021/06/18 06:55:43;;;;;;;18.77;10.55;;;26.10;70.20;;;;;;5094022;28;20182;-81
2021/06/18 06:58:09;;;;;;;17.03;8.57;;;26.10;69.60;;;;;;5094485;28;20184;-81
2021/06/18 07:00:35;;;;;;;14.63;8.73;;;26.20;69.90;;;;;;5094119;28;20175;-81
2021/06/18 07:03:01;;;;;;;21.60;8.20;;;26.40;68.80;;;;;;5093942;28;20439;-81
2021/06/18 07:05:26;;;;;;;17.33;9.20;;;26.50;70.30;;;;;;5094572;28;20453;-82
2021/06/18 07:07:52;;;;;;;19.40;9.30;;;26.70;69.40;;;;;;5094554;28;20172;-82
2021/06/18 07:10:18;;;;;;;21.30;9.00;;;26.80;66.70;;;;;;5094212;28;20422;-82
2021/06/18 07:12:44;;;;;;;12.23;8.10;;;26.90;65.60;;;;;;5093921;28;20188;-82
2021/06/18 07:15:10;;;;;;;16.80;8.88;;;26.90;67.60;;;;;;5094503;28;20172;-82
2021/06/18 07:17:36;;;;;;;18.70;9.10;;;27.10;67.30;;;;;;5094303;28;20542;-82
2021/06/18 07:20:03;;;;;;;19.60;8.33;;;27.30;67.70;;;;;;5093644;28;20172;-82
2021/06/18 07:22:30;;;;;;;20.38;8.57;;;27.50;63.50;;;;;;5093548;28;20679;-81
2021/06/18 07:24:58;;;;;;;20.25;8.43;;;27.40;63.40;;;;;;5093945;28;20196;-82
2021/06/18 07:27:25;;;;;;;15.57;8.57;;;27.30;65.20;;;;;;5094437;28;20172;-81
2021/06/18 07:29:52;;;;;;;16.50;7.55;;;27.50;64.60;;;;;;5093914;28;20230;-82
2021/06/18 07:32:19;;;;;;;14.18;8.00;;;27.60;65.20;;;;;;5093821;28;20199;-81
2021/06/18 07:34:44;;;;;;;17.77;9.15;;;27.70;64.10;;;;;;5094800;28;20655;-81
2021/06/18 07:37:10;;;;;;;22.33;9.80;;;27.80;63.80;;;;;;5096720;28;20229;-81
2021/06/18 07:39:36;;;;;;;15.00;8.13;;;27.90;64.40;;;;;;5094196;28;20171;-81
2021/06/18 07:42:03;;;;;;;19.97;8.30;;;28.10;63.50;;;;;;5093747;28;20929;-82
2021/06/18 07:44:28;;;;;;;15.93;7.65;;;28.20;63.00;;;;;;5093695;28;20198;-82
2021/06/18 07:46:54;;;;;;;12.43;7.43;;;28.40;62.00;;;;;;5095412;28;20175;-82
2021/06/18 07:49:20;;;;;;;12.20;7.87;;;28.60;61.00;;;;;;5095992;28;20201;-81
2021/06/18 07:51:46;;;;;;;12.17;7.33;;;28.80;60.50;;;;;;5093811;28;20410;-81
2021/06/18 07:54:12;;;;;;;12.83;7.30;;;29.00;60.50;;;;;;5094435;28;20179;-81
2021/06/18 07:56:42;;;;;;;16.10;7.37;;;29.10;61.40;;;;;;5094321;28;20420;-81
2021/06/18 07:59:09;;;;;;;17.60;9.43;;;29.20;59.10;;;;;;5094309;28;20776;-82
2021/06/18 08:01:35;;;;;;;21.02;6.93;;;29.30;59.10;;;;;;5093366;28;20233;-82
2021/06/18 08:04:00;;;;;;;10.17;6.90;;;29.50;59.10;;;;;;5094215;28;20199;-82
2021/06/18 08:06:26;;;;;;;12.03;7.03;;;29.50;59.10;;;;;;5094663;28;20406;-82
2021/06/18 08:08:52;;;;;;;25.07;8.70;;;29.60;58.40;;;;;;5097788;28;20173;-82
2021/06/18 08:11:18;;;;;;;18.20;7.50;;;29.70;58.50;;;;;;5097540;28;20174;-82
2021/06/18 08:13:44;;;;;;;12.87;6.83;;;29.80;59.20;;;;;;5097276;28;20769;-82
2021/06/18 08:16:10;;;;;;;16.17;8.57;;;30.00;56.30;;;;;;5097654;28;20171;-81
2021/06/18 08:18:37;;;;;;;14.30;7.93;;;30.00;56.00;;;;;;5097599;28;20163;-81
2021/06/18 08:21:04;;;;;;;11.27;7.30;;;30.20;55.10;;;;;;5097924;28;20418;-81
2021/06/18 08:23:30;;;;;;;12.75;7.82;;;30.40;56.30;;;;;;5097294;28;20196;-81
2021/06/18 08:25:56;;;;;;;15.67;7.27;;;30.60;53.30;;;;;;5096884;28;20580;-81
2021/06/18 08:28:22;;;;;;;12.43;7.60;;;30.60;53.60;;;;;;5097324;28;20501;-81
2021/06/18 08:30:47;;;;;;;14.80;7.70;;;30.70;53.00;;;;;;5097413;28;20203;-81
2021/06/18 08:33:13;;;;;;;15.87;7.13;;;30.80;53.80;;;;;;5097188;28;20226;-81
2021/06/18 08:35:39;;;;;;;11.57;6.73;;;31.00;53.40;;;;;;5096764;28;20171;-81
2021/06/18 08:38:05;;;;;;;13.43;7.30;;;31.10;52.60;;;;;;5097206;28;20187;-80
2021/06/18 08:40:33;;;;;;;20.13;7.70;;;31.30;52.20;;;;;;5098251;28;20249;-81
2021/06/18 08:43:01;;;;;;;12.65;7.60;;;31.30;52.00;;;;;;5097867;28;20211;-81
2021/06/18 08:45:26;;;;;;;13.18;8.20;;;31.20;52.20;;;;;;5097165;28;20195;-81
2021/06/18 08:47:52;;;;;;;11.50;8.30;;;31.30;53.00;;;;;;5096966;28;20535;-81
2021/06/18 08:50:25;;;;;;;12.03;7.07;;;31.40;52.60;;;;;;5097695;28;20410;-80
2021/06/18 08:52:57;;;;;;;9.20;7.10;;;31.60;51.50;;;;;;5097543;28;20426;-81
2021/06/18 08:55:28;;;;;;;13.93;7.55;;;31.60;50.50;;;;;;5097358;28;20164;-81
2021/06/18 08:58:00;;;;;;;11.35;7.20;;;31.70;51.60;;;;;;5096875;28;20671;-81
2021/06/18 09:00:27;;;;;;;14.00;7.53;;;31.90;52.50;;;;;;5096354;28;20227;-81
2021/06/18 09:02:55;;;;;;;11.60;7.10;;;31.90;50.10;;;;;;5096405;28;20671;-81
2021/06/18 09:05:21;;;;;;;11.30;8.02;;;32.20;50.30;;;;;;5095492;28;20202;-82
2021/06/18 09:07:49;;;;;;;9.70;7.40;;;32.40;49.90;;;;;;5095491;28;20513;-80
2021/06/18 09:10:40;;;;;;;13.52;7.88;;;32.60;49.90;;;;;;5095623;28;20168;-80
2021/06/18 09:13:13;;;;;;;14.30;7.90;;;32.90;48.70;;;;;;5095518;28;20298;-81
2021/06/18 09:15:46;;;;;;;13.18;8.48;;;32.90;48.70;;;;;;5095721;28;20168;-81
2021/06/18 09:18:32;;;;;;;15.52;7.72;;;32.90;48.60;;;;;;5095660;28;20191;-81
2021/06/18 09:21:10;;;;;;;15.20;7.80;;;32.90;50.30;;;;;;5096200;28;20168;-81
2021/06/18 09:23:43;;;;;;;11.88;8.13;;;32.90;48.80;;;;;;5095727;28;20195;-81
2021/06/18 09:26:27;;;;;;;10.27;7.55;;;33.00;48.70;;;;;;5095189;28;20754;-81
2021/06/18 09:29:08;;;;;;;20.73;8.35;;;33.10;47.90;;;;;;5095277;28;20259;-82
2021/06/18 09:32:05;;;;;;;19.05;8.20;;;33.30;48.10;;;;;;5095184;28;20539;-81
2021/06/18 09:34:48;;;;;;;13.95;8.25;;;33.20;48.10;;;;;;5082620;28;20232;-81
2021/06/18 09:37:35;;;;;;;17.05;8.77;;;33.20;49.00;;;;;;5095401;28;20170;-81
2021/06/18 09:40:20;;;;;;;11.63;7.45;;;33.30;48.60;;;;;;5095241;28;20193;-82
2021/06/18 09:43:00;;;;;;;12.05;7.53;;;33.40;47.70;;;;;;5095061;28;20676;-82
2021/06/18 09:45:37;;;;;;;11.00;7.88;;;33.30;48.20;;;;;;5095514;28;20862;-82
2021/06/18 09:48:13;;;;;;;11.98;7.72;;;33.40;47.00;;;;;;5096079;28;20168;-81
2021/06/18 09:50:41;;;;;;;11.48;8.00;;;33.70;46.70;;;;;;5096758;28;20160;-81
2021/06/18 09:53:10;;;;;;;9.00;7.43;;;33.70;46.20;;;;;;5094854;28;20207;-82
2021/06/18 09:55:37;;;;;;;10.40;7.57;;;33.70;47.00;;;;;;5095562;28;20172;-81
2021/06/18 09:58:03;;;;;;;8.95;7.40;;;33.90;45.80;;;;;;5095514;28;20719;-81
2021/06/18 10:00:29;;;;;;;8.77;7.10;;;34.10;45.40;;;;;;5095429;28;20260;-82
2021/06/18 10:02:55;;;;;;;14.97;8.27;;;34.20;46.30;;;;;;5095580;28;20208;-81
2021/06/18 10:05:23;;;;;;;10.43;7.72;;;34.40;45.40;;;;;;5095861;28;20457;-81
2021/06/18 10:07:50;;;;;;;10.88;7.22;;;34.60;43.90;;;;;;5096212;28;20183;-82
2021/06/18 10:10:21;;;;;;;11.43;8.13;;;34.70;44.90;;;;;;5096008;28;20199;-82
2021/06/18 10:12:47;;;;;;;11.05;7.75;;;34.90;42.90;;;;;;5095760;28;20196;-81
2021/06/18 10:15:16;;;;;;;14.10;7.85;;;34.80;42.20;;;;;;5095857;28;20263;-81
2021/06/18 10:17:45;;;;;;;15.70;8.20;;;35.00;42.40;;;;;;5095520;28;20187;-81
2021/06/18 10:20:13;;;;;;;10.45;6.65;;;35.20;43.30;;;;;;5095546;28;20202;-81
2021/06/18 10:23:16;;;;;;;13.27;7.93;;;35.40;42.30;;;;;;5095425;28;20201;-81
2021/06/18 10:25:54;;;;;;;12.15;7.53;;;35.60;42.40;;;;;;5076955;28;20257;-81
2021/06/18 10:28:27;;;;;;;10.77;7.32;;;35.90;42.60;;;;;;5095291;28;20172;-82
2021/06/18 10:30:55;;;;;;;11.32;7.40;;;36.00;41.20;;;;;;5095300;28;20168;-82
2021/06/18 10:33:27;;;;;;;8.95;6.90;;;36.10;38.40;;;;;;5095789;28;20196;-82
2021/06/18 10:38:29;;;;;;;12.43;6.53;;;36.20;38.50;;;;;;5096486;28;20969;-82
2021/06/18 10:40:58;;;;;;;11.20;6.50;;;36.40;37.80;;;;;;5094664;28;20167;-82
2021/06/18 10:43:34;;;;;;;8.52;6.93;;;36.40;36.90;;;;;;5095318;28;20202;-82
2021/06/18 10:46:01;;;;;;;11.43;6.28;;;36.50;36.30;;;;;;5095238;28;20625;-82
2021/06/18 10:48:56;;;;;;;20.23;6.82;;;36.70;38.50;;;;;;5095182;28;20513;-82
2021/06/18 10:51:36;;;;;;;8.07;6.43;;;37.00;38.40;;;;;;5072382;28;20186;-82
2021/06/18 10:54:33;;;;;;;12.20;6.55;;;37.20;36.40;;;;;;5094730;28;20675;-82
2021/06/18 10:57:05;;;;;;;6.35;5.03;;;37.40;33.90;;;;;;5094183;28;20199;-82
2021/06/18 10:59:33;;;;;;;8.05;5.97;;;37.50;32.30;;;;;;5094998;28;20187;-82
2021/06/18 11:02:01;;;;;;;10.80;5.35;;;37.60;33.10;;;;;;5095920;28;20194;-82
2021/06/18 11:04:44;;;;;;;10.40;5.70;;;37.60;33.40;;;;;;5095711;28;20210;-82
2021/06/18 11:07:22;;;;;;;6.63;5.38;;;37.70;33.00;;;;;;5095376;28;20176;-81
2021/06/18 11:09:50;;;;;;;9.15;5.53;;;37.90;34.00;;;;;;5095514;28;20172;-82
2021/06/18 11:12:26;;;;;;;6.15;4.97;;;38.00;32.10;;;;;;5095524;28;20227;-82
2021/06/18 11:14:57;;;;;;;10.98;4.70;;;37.90;31.70;;;;;;5095414;28;20175;-82
2021/06/18 11:17:48;;;;;;;5.82;3.97;;;37.90;29.60;;;;;;5095899;28;20167;-82
2021/06/18 11:20:16;;;;;;;8.15;4.20;;;37.80;31.30;;;;;;5095284;28;20279;-81
2021/06/18 11:22:52;;;;;;;3.58;3.40;;;37.40;29.90;;;;;;5095242;28;20202;-82
2021/06/18 11:25:39;;;;;;;6.75;4.13;;;37.40;32.70;;;;;;5096063;28;20227;-82
2021/06/18 11:28:32;;;;;;;9.95;4.40;;;37.50;30.20;;;;;;5095460;28;20179;-82
2021/06/18 11:31:13;;;;;;;7.13;5.43;;;37.50;28.80;;;;;;5095433;28;20535;-82
2021/06/18 11:33:49;;;;;;;9.88;5.13;;;37.50;30.10;;;;;;5094691;28;20651;-82
2021/06/18 11:36:20;;;;;;;7.95;4.85;;;37.60;31.80;;;;;;5094955;28;20632;-83
2021/06/18 11:38:52;;;;;;;4.93;4.68;;;37.80;33.50;;;;;;5095037;28;20163;-82
2021/06/18 11:41:20;;;;;;;7.50;4.97;;;37.80;33.40;;;;;;5096690;28;20172;-82
2021/06/18 11:43:49;;;;;;;8.70;4.90;;;37.70;31.80;;;;;;5098309;28;20223;-82
2021/06/18 11:46:17;;;;;;;5.22;3.88;;;37.90;32.90;;;;;;5099082;28;20172;-82
2021/06/18 11:48:43;;;;;;;9.43;4.65;;;38.10;29.60;;;;;;5099013;28;20167;-82
2021/06/18 11:51:21;;;;;;;8.70;4.40;;;38.00;30.20;;;;;;5099159;28;20172;-82
2021/06/18 11:53:47;;;;;;;5.95;4.10;;;38.00;30.80;;;;;;5099849;28;20434;-82
2021/06/18 11:56:13;;;;;;;8.95;4.95;;;37.90;31.20;;;;;;5099756;28;20647;-82
2021/06/18 11:58:42;;;;;;;5.43;4.45;;;38.00;31.80;;;;;;5099858;28;20190;-82
2021/06/18 12:01:17;;;;;;;5.47;3.35;;;38.00;29.60;;;;;;5099355;28;20175;-82
2021/06/18 12:03:51;;;;;;;6.90;4.03;;;37.90;28.50;;;;;;5098230;28;20195;-82
2021/06/18 12:06:17;;;;;;;7.20;4.20;;;37.90;30.90;;;;;;5098538;28;20254;-82
2021/06/18 12:09:13;;;;;;;6.40;5.03;;;37.70;29.60;;;;;;5097833;28;20164;-81
2021/06/18 12:11:56;;;;;;;6.60;4.30;;;37.60;29.60;;;;;;5097510;28;20176;-81
2021/06/18 12:14:22;;;;;;;8.57;3.85;;;37.60;33.00;;;;;;5097468;28;20780;-82
2021/06/18 12:16:50;;;;;;;5.87;4.53;;;37.50;30.40;;;;;;5096908;28;20172;-81
2021/06/18 12:19:28;;;;;;;7.50;4.93;;;37.40;31.50;;;;;;5097642;28;20444;-82
2021/06/18 12:22:08;;;;;;;6.53;4.68;;;37.50;32.90;;;;;;5097507;28;20244;-81
2021/06/18 12:24:55;;;;;;;8.02;4.38;;;37.80;30.50;;;;;;5097546;28;20265;-81
2021/06/18 12:27:23;;;;;;;8.75;5.30;;;37.90;29.30;;;;;;5097431;28;20156;-80
2021/06/18 12:29:55;;;;;;;6.18;4.75;;;38.00;30.10;;;;;;5097228;28;20260;-82
2021/06/18 12:32:26;;;;;;;5.65;4.38;;;38.10;30.40;;;;;;5096726;28;20188;-81
2021/06/18 12:34:55;;;;;;;6.25;4.40;;;38.40;32.20;;;;;;5097150;28;20228;-82
2021/06/18 12:37:23;;;;;;;5.22;4.53;;;38.50;31.40;;;;;;5097145;28;20175;-81
2021/06/18 12:39:55;;;;;;;6.45;5.45;;;38.50;29.50;;;;;;5097216;28;20175;-82
2021/06/18 12:42:23;;;;;;;6.90;3.92;;;38.50;30.20;;;;;;5097608;28;20202;-81
2021/06/18 12:45:13;;;;;;;6.40;4.40;;;38.60;28.80;;;;;;5097592;28;20195;-81
2021/06/18 12:47:42;;;;;;;4.65;3.95;;;38.50;30.90;;;;;;5096812;28;20217;-81
2021/06/18 12:50:26;;;;;;;6.53;4.35;;;38.50;29.00;;;;;;5097082;28;20172;-82
2021/06/18 12:53:13;;;;;;;7.88;4.22;;;38.40;29.40;;;;;;5096149;28;20199;-81
2021/06/18 12:55:44;;;;;;;6.22;4.80;;;38.60;29.30;;;;;;5096841;28;20203;-81